createdAt,value
2022-09-16T00:00:52.087Z,100199.91
2022-09-16T00:03:22.020Z,100197.34
2022-09-16T00:05:56.114Z,100195.63
2022-09-16T00:08:25.869Z,100204.19
2022-09-16T00:10:55.649Z,100206.75
2022-09-16T00:13:25.329Z,100206.75
2022-09-16T00:15:55.021Z,100210.16
2022-09-16T00:18:25.190Z,100205.00
2022-09-16T00:20:57.453Z,100201.59
2022-09-16T00:23:27.129Z,100204.13
2022-09-16T00:25:58.233Z,100203.28
2022-09-16T00:28:28.069Z,100197.28
2022-09-16T00:31:01.068Z,100204.97
2022-09-16T00:33:31.408Z,100195.59
2022-09-16T00:36:12.051Z,100201.56
2022-09-16T00:38:43.413Z,100200.72
2022-09-16T00:41:19.473Z,100201.56
2022-09-16T00:43:54.341Z,100203.25
2022-09-16T00:46:29.267Z,100202.41
2022-09-16T00:48:59.873Z,100205.84
2022-09-16T00:51:32.245Z,100200.69
2022-09-16T00:54:10.004Z,100198.16
2022-09-16T00:56:43.492Z,100196.44
2022-09-16T00:59:17.989Z,100195.59
2022-09-16T01:01:48.864Z,100191.31
2022-09-16T01:04:22.552Z,100199.00
2022-09-16T01:06:55.649Z,100193.00
2022-09-16T01:09:27.875Z,100198.13
2022-09-16T01:11:57.821Z,100187.88
2022-09-16T01:14:43.247Z,100194.72
2022-09-16T01:17:20.688Z,100191.28
2022-09-16T01:20:17.042Z,100193.84
2022-09-16T01:23:14.143Z,100181.84
2022-09-16T01:25:56.802Z,100192.13
2022-09-16T01:28:58.769Z,100198.97
2022-09-16T01:31:40.767Z,100201.50
2022-09-16T01:34:20.728Z,100199.81
2022-09-16T01:36:58.743Z,100201.53
2022-09-16T01:39:33.970Z,100195.53
2022-09-16T01:42:23.621Z,100193.84
2022-09-16T01:45:03.495Z,100186.97
2022-09-16T01:47:41.848Z,100196.41
2022-09-16T01:50:21.711Z,100195.56
2022-09-16T01:53:01.085Z,100198.97
2022-09-16T01:55:35.566Z,100200.69
2022-09-16T01:58:12.625Z,100200.69
2022-09-16T02:00:45.639Z,100202.38
2022-09-16T02:03:22.697Z,100210.94
2022-09-16T02:05:57.076Z,100204.97
2022-09-16T02:08:46.049Z,100197.28
2022-09-16T02:11:18.557Z,100185.31
2022-09-16T02:13:52.392Z,100197.28
2022-09-16T02:16:27.323Z,100155.41
2022-09-16T02:19:03.500Z,100186.19
2022-09-16T02:21:36.237Z,100187.91
2022-09-16T02:24:10.788Z,100169.09
2022-09-16T02:26:44.157Z,100187.03
2022-09-16T02:29:18.869Z,100184.47
2022-09-16T02:31:54.962Z,100192.13
2022-09-16T02:34:32.440Z,100188.72
2022-09-16T02:37:09.293Z,100163.94
2022-09-16T02:39:44.583Z,100190.44
2022-09-16T02:42:14.460Z,100190.41
2022-09-16T02:44:44.334Z,100183.56
2022-09-16T02:47:20.015Z,100187.03
2022-09-16T02:49:57.796Z,100192.13
2022-09-16T02:52:36.228Z,100192.97
2022-09-16T02:55:15.974Z,100188.72
2022-09-16T02:57:45.660Z,100184.41
2022-09-16T03:00:15.823Z,100189.53
2022-09-16T03:02:45.682Z,100198.91
2022-09-16T03:05:17.999Z,100204.03
2022-09-16T03:07:47.692Z,100198.06
2022-09-16T03:10:17.694Z,100203.19
2022-09-16T03:12:58.160Z,100192.97
2022-09-16T03:15:50.285Z,100196.41
2022-09-16T03:18:38.084Z,100198.97
2022-09-16T03:21:19.486Z,100198.13
2022-09-16T03:23:58.522Z,100191.31
2022-09-16T03:26:36.979Z,100179.31
2022-09-16T03:29:18.137Z,100191.28
2022-09-16T03:31:51.127Z,100186.16
2022-09-16T03:34:26.838Z,100187.84
2022-09-16T03:37:04.495Z,100188.75
2022-09-16T03:39:35.516Z,100187.00
2022-09-16T03:42:07.765Z,100189.56
2022-09-16T03:44:39.948Z,100181.88
2022-09-16T03:47:10.737Z,100188.69
2022-09-16T03:49:41.111Z,100189.56
2022-09-16T03:52:13.641Z,100194.69
2022-09-16T03:54:43.677Z,100188.72
2022-09-16T03:57:13.328Z,100189.56
2022-09-16T03:59:42.949Z,100185.31
2022-09-16T04:02:12.715Z,100185.31
2022-09-16T04:04:43.100Z,100180.19
2022-09-16T04:07:15.337Z,100172.53
2022-09-16T04:09:45.201Z,100160.53
2022-09-16T04:12:14.879Z,100156.28
2022-09-16T04:14:44.563Z,100169.94
2022-09-16T04:17:14.165Z,100163.97
2022-09-16T04:19:43.812Z,100169.94
2022-09-16T04:22:16.018Z,100175.94
2022-09-16T04:24:45.637Z,100167.38
2022-09-16T04:27:15.224Z,100164.81
2022-09-16T04:29:44.874Z,100163.13
2022-09-16T04:32:14.488Z,100169.09
2022-09-16T04:34:44.175Z,100170.81
2022-09-16T04:37:16.347Z,100168.25
2022-09-16T04:39:46.901Z,100167.38
2022-09-16T04:42:16.584Z,100157.13
2022-09-16T04:44:46.221Z,100169.94
2022-09-16T04:47:15.844Z,100164.81
2022-09-16T04:49:45.524Z,100165.66
2022-09-16T04:52:17.883Z,100157.16
2022-09-16T04:54:47.488Z,100167.38
2022-09-16T04:57:17.097Z,100151.13
2022-09-16T04:59:46.733Z,100163.13
2022-09-16T05:02:16.369Z,100160.56
2022-09-16T05:04:46.085Z,100166.50
2022-09-16T05:07:18.500Z,100172.50
2022-09-16T05:09:48.149Z,100168.25
2022-09-16T05:12:17.758Z,100171.66
2022-09-16T05:14:47.516Z,100171.66
2022-09-16T05:17:39.401Z,100159.69
2022-09-16T05:20:07.373Z,100163.97
2022-09-16T05:22:39.789Z,100175.06
2022-09-16T05:25:10.254Z,100165.66
2022-09-16T05:27:40.089Z,100173.38
2022-09-16T05:30:11.331Z,100180.19
2022-09-16T05:32:41.037Z,100177.63
2022-09-16T05:35:12.179Z,100178.47
2022-09-16T05:37:44.490Z,100183.59
2022-09-16T05:40:14.246Z,100176.75
2022-09-16T05:42:44.070Z,100178.47
2022-09-16T05:45:13.928Z,100179.31
2022-09-16T05:47:50.341Z,100185.31
2022-09-16T05:50:20.228Z,100169.09
2022-09-16T05:52:52.460Z,100173.38
2022-09-16T05:55:22.268Z,100173.38
2022-09-16T05:57:51.998Z,100177.63
2022-09-16T06:00:21.744Z,100161.41
2022-09-16T06:02:51.444Z,100169.13
2022-09-16T06:05:22.098Z,100183.66
2022-09-16T06:07:58.812Z,100163.97
2022-09-16T06:10:28.553Z,100189.63
2022-09-16T06:12:58.387Z,100183.69
2022-09-16T06:15:29.358Z,100183.66
2022-09-16T06:18:02.900Z,100179.34
2022-09-16T06:20:35.353Z,100176.81
2022-09-16T06:23:07.658Z,100181.94
2022-09-16T06:25:37.330Z,100174.25
2022-09-16T06:28:07.591Z,100175.97
2022-09-16T06:30:37.323Z,100175.94
2022-09-16T06:33:07.345Z,100157.13
2022-09-16T06:35:38.285Z,100164.84
2022-09-16T06:38:10.497Z,100173.41
2022-09-16T06:40:40.205Z,100175.13
2022-09-16T06:43:10.062Z,100170.84
2022-09-16T06:45:39.745Z,100170.84
2022-09-16T06:48:09.532Z,100170.84
2022-09-16T06:50:39.316Z,100170.00
2022-09-16T06:53:11.650Z,100167.41
2022-09-16T06:55:41.316Z,100170.00
2022-09-16T06:58:11.033Z,100155.47
2022-09-16T07:00:40.731Z,100163.16
2022-09-16T07:03:10.470Z,100169.13
2022-09-16T07:05:41.080Z,100173.41
2022-09-16T07:08:13.269Z,100173.38
2022-09-16T07:10:42.997Z,100182.78
2022-09-16T07:13:12.682Z,100180.22
2022-09-16T07:16:09.199Z,100174.22
2022-09-16T07:18:32.829Z,100163.94
2022-09-16T07:21:06.020Z,100175.03
2022-09-16T07:23:40.696Z,100170.72
2022-09-16T07:26:12.559Z,100171.63
2022-09-16T07:28:43.433Z,100176.75
2022-09-16T07:31:15.625Z,100184.44
2022-09-16T07:33:47.775Z,100169.88
2022-09-16T07:36:20.116Z,100156.22
2022-09-16T07:38:53.418Z,100173.31
2022-09-16T07:41:25.675Z,100180.97
2022-09-16T07:43:59.007Z,100183.50
2022-09-16T07:46:30.379Z,100190.31
2022-09-16T07:49:02.006Z,100168.09
2022-09-16T07:51:32.581Z,100180.94
2022-09-16T07:54:07.345Z,100176.63
2022-09-16T07:56:39.271Z,100176.63
2022-09-16T07:59:15.937Z,100180.03
2022-09-16T08:01:50.101Z,100190.28
2022-09-16T08:04:20.876Z,100185.09
2022-09-16T08:06:51.066Z,100186.81
2022-09-16T08:09:42.138Z,100190.13
2022-09-16T08:12:14.699Z,100181.59
2022-09-16T08:14:44.491Z,100196.09
2022-09-16T08:17:14.174Z,100195.19
2022-09-16T08:19:44.915Z,100178.91
2022-09-16T08:22:14.608Z,100192.59
2022-09-16T08:24:46.943Z,100177.22
2022-09-16T08:27:16.678Z,100181.50
2022-09-16T08:29:46.499Z,100196.88
2022-09-16T08:32:16.225Z,100191.66
2022-09-16T08:34:49.737Z,100190.69
2022-09-16T08:37:19.427Z,100190.69
2022-09-16T08:39:52.403Z,100189.78
2022-09-16T08:42:36.272Z,100182.16
2022-09-16T08:45:20.560Z,100185.59
2022-09-16T08:48:11.298Z,100176.19
2022-09-16T08:50:47.023Z,100188.88
2022-09-16T08:53:22.749Z,100184.41
2022-09-16T08:55:56.336Z,100147.56
2022-09-16T08:58:28.641Z,100191.00
2022-09-16T09:01:03.578Z,100172.88
2022-09-16T09:03:40.515Z,100180.59
2022-09-16T09:06:25.402Z,100188.25
2022-09-16T09:09:04.940Z,100191.06
2022-09-16T09:11:45.021Z,100191.06
2022-09-16T09:14:34.273Z,100193.47
2022-09-16T09:17:12.489Z,100189.09
2022-09-16T09:19:58.322Z,100206.91
2022-09-16T09:22:54.744Z,100196.28
2022-09-16T09:25:31.538Z,100183.34
2022-09-16T09:28:23.377Z,100193.53
2022-09-16T09:31:10.082Z,100178.06
2022-09-16T09:33:54.033Z,100176.28
2022-09-16T09:36:39.681Z,100178.69
2022-09-16T09:39:47.049Z,100172.13
2022-09-16T09:42:21.952Z,100162.78
2022-09-16T09:45:02.342Z,100172.13
2022-09-16T09:47:38.641Z,100167.84
2022-09-16T09:50:20.305Z,100166.06
2022-09-16T09:52:59.100Z,100163.31
2022-09-16T09:55:34.215Z,100119.00
2022-09-16T09:58:18.399Z,100161.41
2022-09-16T10:00:56.312Z,100154.72
2022-09-16T10:03:26.836Z,100166.28
2022-09-16T10:05:59.098Z,100165.94
2022-09-16T10:08:32.736Z,100166.84
2022-09-16T10:11:04.321Z,100159.06
2022-09-16T10:13:37.731Z,100156.19
2022-09-16T10:16:20.706Z,100151.38
2022-09-16T10:19:00.514Z,100138.34
2022-09-16T10:21:42.727Z,100147.63
2022-09-16T10:24:31.187Z,100141.59
2022-09-16T10:27:02.314Z,100135.63
2022-09-16T10:29:32.562Z,100152.69
2022-09-16T10:32:10.658Z,100147.53
2022-09-16T10:34:43.180Z,100097.16
2022-09-16T10:37:20.346Z,100139.91
2022-09-16T10:39:55.790Z,100131.28
2022-09-16T10:42:28.511Z,100136.66
2022-09-16T10:45:05.936Z,100135.09
2022-09-16T10:47:39.160Z,100129.50
2022-09-16T10:50:11.303Z,100106.94
2022-09-16T10:52:45.581Z,100121.91
2022-09-16T10:55:32.929Z,100112.44
2022-09-16T10:58:16.285Z,100114.03
2022-09-16T11:00:58.471Z,100101.25
2022-09-16T11:04:05.446Z,100116.00
2022-09-16T11:06:46.608Z,100111.66
2022-09-16T11:09:24.173Z,100105.53
2022-09-16T11:12:10.471Z,100110.81
2022-09-16T11:14:50.016Z,100133.00
2022-09-16T11:17:42.272Z,100133.19
2022-09-16T11:20:42.366Z,100139.34
2022-09-16T11:23:26.808Z,100126.94
2022-09-16T11:26:02.779Z,100131.03
2022-09-16T11:28:50.376Z,100130.75
2022-09-16T11:31:30.994Z,100093.19
2022-09-16T11:34:13.329Z,100120.34
2022-09-16T11:36:58.136Z,100117.75
2022-09-16T11:39:43.519Z,100121.66
2022-09-16T11:42:22.317Z,100116.81
2022-09-16T11:45:02.271Z,100120.59
2022-09-16T11:47:46.092Z,100132.44
2022-09-16T11:50:42.821Z,100120.50
2022-09-16T11:53:45.354Z,100123.44
2022-09-16T11:56:21.673Z,100110.75
2022-09-16T11:58:56.987Z,100124.69
2022-09-16T12:01:33.936Z,100128.22
2022-09-16T12:04:09.398Z,100114.50
2022-09-16T12:06:53.677Z,100126.53
2022-09-16T12:09:37.232Z,100103.34
2022-09-16T12:12:15.284Z,100099.81
2022-09-16T12:14:49.782Z,100094.72
2022-09-16T12:17:23.729Z,100099.78
2022-09-16T12:20:00.111Z,100095.31
2022-09-16T12:22:34.706Z,100090.84
2022-09-16T12:25:14.836Z,100090.66
2022-09-16T12:27:52.588Z,100089.31
2022-09-16T12:30:32.513Z,100085.06
2022-09-16T12:33:07.919Z,100072.03
2022-09-16T12:35:46.461Z,100077.84
2022-09-16T12:38:20.848Z,100069.91
2022-09-16T12:41:23.724Z,100074.53
2022-09-16T12:44:33.510Z,100097.25
2022-09-16T12:47:35.290Z,100075.19
2022-09-16T12:50:30.773Z,100082.28
2022-09-16T12:53:49.290Z,100070.97
2022-09-16T12:56:33.380Z,100081.91
2022-09-16T12:59:39.464Z,100080.97
2022-09-16T13:02:18.502Z,100077.72
2022-09-16T13:04:55.485Z,100092.06
2022-09-16T13:07:29.630Z,100116.63
2022-09-16T13:10:05.245Z,100146.56
2022-09-16T13:12:44.075Z,100161.53
2022-09-16T13:16:35.288Z,100139.34
2022-09-16T13:19:37.051Z,100098.34
2022-09-16T13:22:31.948Z,100121.34
2022-09-16T13:25:13.891Z,100120.31
2022-09-16T13:27:57.481Z,100104.88
2022-09-16T13:30:36.822Z,100103.88
2022-09-16T13:33:32.054Z,100108.78
2022-09-16T13:36:18.471Z,100098.22
2022-09-16T13:38:50.387Z,100105.75
2022-09-16T13:41:34.264Z,100091.09
2022-09-16T13:44:26.951Z,100080.56
2022-09-16T13:46:57.732Z,100090.59
2022-09-16T13:49:33.937Z,100083.69
2022-09-16T13:52:13.649Z,100071.84
2022-09-16T13:55:09.326Z,100087.59
2022-09-16T13:57:56.171Z,100129.25
2022-09-16T14:00:33.721Z,100040.75
2022-09-16T14:03:37.423Z,100075.78
2022-09-16T14:06:31.254Z,100091.38
2022-09-16T14:09:11.672Z,100083.56
2022-09-16T14:11:50.310Z,100067.06
2022-09-16T14:17:23.511Z,100057.53
2022-09-16T14:19:58.976Z,100069.38
2022-09-16T14:22:33.789Z,100045.44
2022-09-16T14:25:19.292Z,100054.00
2022-09-16T14:27:56.722Z,100060.78
2022-09-16T14:30:27.354Z,100066.63
2022-09-16T14:32:57.127Z,100069.25
2022-09-16T14:35:29.340Z,100076.16
2022-09-16T14:38:06.578Z,100042.19
2022-09-16T14:40:42.883Z,100069.53
2022-09-16T14:43:18.045Z,100062.72
2022-09-16T14:45:54.895Z,100058.47
2022-09-16T14:48:35.850Z,100054.31
2022-09-16T14:51:13.719Z,100067.97
2022-09-16T14:54:11.897Z,100064.50
2022-09-16T14:56:42.934Z,100044.81
2022-09-16T14:59:15.945Z,100042.25
2022-09-16T15:01:45.954Z,100047.34
2022-09-16T15:04:21.105Z,100050.63
2022-09-16T15:06:55.366Z,100060.09
2022-09-16T15:09:39.444Z,100048.19
2022-09-16T15:12:25.766Z,100043.13
2022-09-16T15:14:55.901Z,100040.41
2022-09-16T15:17:28.941Z,100040.41
2022-09-16T15:20:01.045Z,100040.28
2022-09-16T15:22:30.915Z,100041.97
2022-09-16T15:25:03.365Z,100041.13
2022-09-16T15:27:34.285Z,100037.66
2022-09-16T15:30:05.912Z,100016.97
2022-09-16T15:32:46.731Z,100046.75
2022-09-16T15:35:25.884Z,100032.34
2022-09-16T15:37:56.811Z,100041.91
2022-09-16T15:40:36.657Z,100044.38
2022-09-16T15:43:19.450Z,100035.00
2022-09-16T15:46:01.784Z,100038.63
2022-09-16T15:48:36.835Z,100042.03
2022-09-16T15:51:13.195Z,100041.22
2022-09-16T15:53:49.128Z,99986.34
2022-09-16T15:56:27.349Z,100040.53
2022-09-16T15:59:00.890Z,100037.72
2022-09-16T16:01:43.605Z,100014.00
2022-09-16T16:04:16.274Z,100035.38
2022-09-16T16:06:51.782Z,100022.84
2022-09-16T16:09:32.845Z,100035.66
2022-09-16T16:12:12.168Z,100029.06
2022-09-16T16:14:43.379Z,100023.28
2022-09-16T16:17:15.589Z,100024.97
2022-09-16T16:19:46.338Z,100018.19
2022-09-16T16:22:17.596Z,100025.91
2022-09-16T16:24:48.328Z,100024.31
2022-09-16T16:27:24.993Z,100024.31
2022-09-16T16:29:56.717Z,100037.16
2022-09-16T16:32:27.449Z,100029.63
2022-09-16T16:34:58.117Z,100024.41
2022-09-16T16:37:45.506Z,100038.94
2022-09-16T16:40:16.314Z,100040.59
2022-09-16T16:42:48.649Z,100042.44
2022-09-16T16:45:19.081Z,100035.72
2022-09-16T16:47:48.727Z,100042.63
2022-09-16T16:50:20.372Z,100040.91
2022-09-16T16:52:53.765Z,100041.91
2022-09-16T16:55:23.455Z,100027.41
2022-09-16T16:57:56.685Z,99964.34
2022-09-16T17:00:27.780Z,100047.91
2022-09-16T17:02:57.507Z,100030.84
2022-09-16T17:05:27.228Z,100047.09
2022-09-16T17:07:56.927Z,100060.06
2022-09-16T17:10:26.607Z,100066.09
2022-09-16T17:12:59.877Z,100060.94
2022-09-16T17:15:29.530Z,100058.38
2022-09-16T17:18:00.332Z,100044.72
2022-09-16T17:20:30.004Z,100051.56
2022-09-16T17:23:01.704Z,100025.94
2022-09-16T17:25:32.976Z,100009.75
2022-09-16T17:28:08.875Z,100044.72
2022-09-16T17:30:38.583Z,100045.63
2022-09-16T17:33:09.328Z,100052.34
2022-09-16T17:35:40.993Z,100063.53
2022-09-16T17:38:13.230Z,100060.13
2022-09-16T17:40:46.295Z,100058.47
2022-09-16T17:43:18.624Z,100068.72
2022-09-16T17:45:52.606Z,100058.56
2022-09-16T17:48:23.854Z,100050.00
2022-09-16T17:50:53.835Z,100015.09
2022-09-16T17:53:25.430Z,100062.00
2022-09-16T17:56:04.372Z,100061.16
2022-09-16T17:58:37.735Z,100061.16
2022-09-16T18:01:13.928Z,100060.28
2022-09-16T18:03:45.696Z,100066.28
2022-09-16T18:06:17.243Z,100073.09
2022-09-16T18:08:47.521Z,100059.47
2022-09-16T18:11:20.840Z,100066.25
2022-09-16T18:14:00.379Z,100054.44
2022-09-16T18:16:32.961Z,100080.06
2022-09-16T18:19:04.611Z,100089.44
2022-09-16T18:21:35.071Z,100077.53
2022-09-16T18:24:08.627Z,100081.84
2022-09-16T18:26:40.721Z,100097.22
2022-09-16T18:29:16.232Z,100078.47
2022-09-16T18:31:50.188Z,100104.97
2022-09-16T18:34:27.975Z,100104.13
2022-09-16T18:37:01.041Z,100104.97
2022-09-16T18:39:32.940Z,100080.22
2022-09-16T18:42:06.522Z,100107.59
2022-09-16T18:44:39.741Z,100116.13
2022-09-16T18:47:11.359Z,100113.53
2022-09-16T18:49:41.082Z,100102.47
2022-09-16T18:52:10.797Z,100122.13
2022-09-16T18:54:41.514Z,100097.34
2022-09-16T18:57:13.151Z,100123.78
2022-09-16T18:59:46.652Z,100124.66
2022-09-16T19:02:17.415Z,100118.69
2022-09-16T19:04:48.148Z,100099.03
2022-09-16T19:07:19.386Z,100099.03
2022-09-16T19:09:49.743Z,100128.06
2022-09-16T19:12:19.458Z,100111.03
2022-09-16T19:14:55.575Z,100101.66
2022-09-16T19:17:25.439Z,100122.16
2022-09-16T19:19:55.331Z,100113.56
2022-09-16T19:22:25.020Z,100113.59
2022-09-16T19:24:56.792Z,100115.31
2022-09-16T19:27:26.487Z,100114.47
2022-09-16T19:29:58.795Z,100111.88
2022-09-16T19:32:28.534Z,100105.06
2022-09-16T19:34:58.369Z,100104.19
2022-09-16T19:37:28.128Z,100087.97
2022-09-16T19:39:59.019Z,100085.44
2022-09-16T19:42:28.757Z,100099.94
2022-09-16T19:45:01.043Z,100112.72
2022-09-16T19:47:30.712Z,100117.03
2022-09-16T19:50:02.057Z,100122.97
2022-09-16T19:52:31.988Z,100113.59
2022-09-16T19:55:02.619Z,100110.16
2022-09-16T19:57:35.704Z,100107.59
2022-09-16T20:00:13.680Z,100086.25
2022-09-16T20:02:45.998Z,100114.47
2022-09-16T20:05:17.817Z,100125.53
2022-09-16T20:07:47.467Z,100117.00
2022-09-16T20:10:18.968Z,100111.88
2022-09-16T20:12:59.405Z,100105.06
2022-09-16T20:15:31.835Z,100115.31
2022-09-16T20:18:01.593Z,100100.75
2022-09-16T20:20:32.271Z,100104.19
2022-09-16T20:23:02.924Z,100116.16
2022-09-16T20:25:37.623Z,100104.22
2022-09-16T20:28:07.273Z,100119.56
2022-09-16T20:30:39.564Z,100135.75
2022-09-16T20:33:11.217Z,100079.38
2022-09-16T20:35:40.901Z,100137.50
2022-09-16T20:38:11.555Z,100132.34
2022-09-16T20:40:44.778Z,100149.44
2022-09-16T20:43:14.558Z,100144.31
2022-09-16T20:45:47.370Z,100141.75
2022-09-16T20:48:17.183Z,100125.53
2022-09-16T20:50:46.819Z,100144.34
2022-09-16T20:53:17.481Z,100134.06
2022-09-16T20:55:48.172Z,100122.09
2022-09-16T20:58:18.877Z,100137.50
2022-09-16T21:01:02.063Z,100138.34
2022-09-16T21:03:38.012Z,100076.81
2022-09-16T21:06:11.929Z,100132.34
2022-09-16T21:08:46.189Z,100144.31
2022-09-16T21:11:19.884Z,100139.19
2022-09-16T21:13:55.036Z,100141.78
2022-09-16T21:16:26.058Z,100146.03
2022-09-16T21:18:59.419Z,100157.97
2022-09-16T21:21:32.089Z,100148.59
2022-09-16T21:24:02.895Z,100153.66
2022-09-16T21:26:34.101Z,100143.44
2022-09-16T21:29:05.759Z,100159.66
2022-09-16T21:31:38.133Z,100164.78
2022-09-16T21:34:14.460Z,100161.34
2022-09-16T21:36:44.893Z,100151.13
2022-09-16T21:39:15.552Z,100160.47
2022-09-16T21:41:46.108Z,100163.03
2022-09-16T21:44:16.623Z,100167.28
2022-09-16T21:46:47.917Z,100163.00
2022-09-16T21:49:24.185Z,100161.31
2022-09-16T21:51:55.424Z,100162.13
2022-09-16T21:54:25.530Z,100154.44
2022-09-16T21:56:55.878Z,100162.13
2022-09-16T21:59:25.545Z,100165.56
2022-09-16T22:01:56.783Z,100178.41
2022-09-16T22:04:32.431Z,100165.59
2022-09-16T22:07:02.029Z,100164.75
2022-09-16T22:09:32.514Z,100161.31
2022-09-16T22:12:02.116Z,100169.88
2022-09-16T22:14:31.712Z,100140.81
2022-09-16T22:17:01.415Z,100182.69
2022-09-16T22:19:33.640Z,100179.22
2022-09-16T22:22:03.324Z,100176.69
2022-09-16T22:24:32.931Z,100180.94
2022-09-16T22:27:02.521Z,100170.69
2022-09-16T22:29:32.099Z,100159.53
2022-09-16T22:32:01.976Z,100170.66
2022-09-16T22:34:34.159Z,100175.78
2022-09-16T22:37:03.841Z,100170.66
2022-09-16T22:39:33.500Z,100181.81
2022-09-16T22:42:03.105Z,100179.22
2022-09-16T22:44:33.358Z,100173.25
2022-09-16T22:47:02.975Z,100184.34
2022-09-16T22:49:35.265Z,100187.78
2022-09-16T22:52:05.512Z,100181.78
2022-09-16T22:54:35.132Z,100173.22
2022-09-16T22:57:04.754Z,100177.47
2022-09-16T22:59:34.491Z,100192.03
2022-09-16T23:02:04.131Z,100193.75
2022-09-16T23:04:36.715Z,100197.22
2022-09-16T23:07:07.255Z,100204.03
2022-09-16T23:09:36.827Z,100195.50
2022-09-16T23:12:07.402Z,100195.47
2022-09-16T23:14:37.082Z,100202.28
2022-09-16T23:17:06.955Z,100202.31
2022-09-16T23:19:39.202Z,100167.22
2022-09-16T23:22:08.855Z,100209.16
2022-09-16T23:24:38.450Z,100174.09
2022-09-16T23:27:08.447Z,100190.34
2022-09-16T23:29:38.034Z,100207.47
2022-09-16T23:32:08.071Z,100206.59
2022-09-16T23:34:40.271Z,100188.63
2022-09-16T23:37:10.142Z,100214.25
2022-09-16T23:39:39.758Z,100206.59
2022-09-16T23:42:12.086Z,100200.63
2022-09-16T23:44:41.732Z,100200.63
2022-09-16T23:47:11.345Z,100207.47
2022-09-16T23:49:43.865Z,100206.59
2022-09-16T23:52:13.655Z,100208.31
2022-09-16T23:54:43.535Z,100197.19
2022-09-16T23:57:13.155Z,100209.16
2022-09-16T23:59:42.768Z,100200.63
